Island Pilot — WDF6368 — position and weather

sailwx.info

Track history (hours):
 
Tides and Currents Weather Stations Pressure Air Temp Water Temp Dewpoint Dewpoint Depression Visibility Wind Speed Wind Dir Waves Ship Positions

Island Pilot

Owner: Island Pilot, Yonges Island, SC. More information available from US FCC via Universal Licensing System and Coast Guard Vessel Documentation Center.

Last reported at 2017-Dec-09 04:37 UTC. Time now 2017-Dec-11 11:30 UTC.
Position N 36°43' W 076°13'.

Length 20 m; draft 3 m.

Type: Towing. MMSI: 367473520.

Date/timePositionNaut miles runAvg speedWind from/ knotsBaromVisibWave heightAir tempDewpointWater temp
2017-Dec-09 04:37N 36°43' W 076°13'1 4.2
2017-Dec-09 04:29N 36°43' W 076°14'1 1.5
2017-Dec-09 03:59N 36°43' W 076°15'1 2.3
2017-Dec-09 03:31N 36°44' W 076°16'2 3.7
2017-Dec-09 03:00N 36°45' W 076°18'1 2.9
2017-Dec-09 02:31N 36°47' W 076°18'1 1.5
2017-Dec-09 02:00N 36°47' W 076°18'3 5.5
2017-Dec-09 01:31N 36°50' W 076°18'3 5.6
2017-Dec-09 01:00N 36°52' W 076°20'3 5.9
2017-Dec-09 00:30N 36°55' W 076°20'115 5.6
2017-Dec-08 03:58N 38°50' W 076°27'3 5.2
2017-Dec-08 03:29N 38°52' W 076°26'3 5.0
2017-Dec-08 02:49N 38°56' W 076°25'1 4.7
2017-Dec-08 02:30N 38°57' W 076°24'3 4.7
2017-Dec-08 01:57N 38°59' W 076°23'2 4.3
2017-Dec-08 01:30N 39°01' W 076°23'2 4.6
2017-Dec-08 01:00N 39°04' W 076°23'2 4.8
2017-Dec-08 00:30N 39°06' W 076°24'2 5.0
2017-Dec-08 00:00N 39°08' W 076°24'3 5.3
2017-Dec-07 23:30N 39°11' W 076°26'3 5.2
2017-Dec-07 23:00N 39°12' W 076°29'1 1.3
2017-Dec-07 22:31N 39°13' W 076°29'0 0.0
2017-Dec-07 22:00N 39°13' W 076°29'0 0.0
2017-Dec-07 21:30N 39°13' W 076°29'0 0.2
2017-Dec-07 21:00N 39°13' W 076°29'0 0.0
2017-Dec-07 20:30N 39°13' W 076°29'0 0.0
2017-Dec-07 19:58N 39°13' W 076°29'0 0.0
2017-Dec-07 19:30N 39°13' W 076°29'0 0.0
2017-Dec-07 18:55N 39°13' W 076°29'0 0.0
2017-Dec-07 18:30N 39°13' W 076°29'2 4.3
2017-Dec-07 18:01N 39°13' W 076°32'3 5.3
2017-Dec-07 17:31N 39°12' W 076°35'0 0.0
2017-Dec-07 17:00N 39°12' W 076°35'0 0.0
2017-Dec-07 16:31N 39°12' W 076°35'0 0.0
2017-Dec-07 16:00N 39°12' W 076°35'0 0.0
2017-Dec-07 15:30N 39°12' W 076°35'0 0.0
2017-Dec-07 15:00N 39°12' W 076°35'1 1.0
2017-Dec-07 14:30N 39°13' W 076°35'1 1.9
2017-Dec-07 14:01N 39°14' W 076°34'0 0.0
2017-Dec-07 13:30N 39°14' W 076°34'0 0.0
2017-Dec-07 13:01N 39°14' W 076°34'2 3.7
2017-Dec-07 12:31N 39°13' W 076°32'2 4.4
2017-Dec-07 12:00N 39°13' W 076°29'0 0.1
2017-Dec-07 11:30N 39°13' W 076°29'0 0.0
2017-Dec-07 11:00N 39°13' W 076°29'0 0.0
2017-Dec-07 10:31N 39°13' W 076°29'1 1.8
2017-Dec-07 10:01N 39°12' W 076°29'4 7.3
2017-Dec-07 09:30N 39°14' W 076°33'3 6.5
2017-Dec-07 09:01N 39°17' W 076°36'0 0.2
2017-Dec-07 08:30N 39°17' W 076°36'0 0.0
2017-Dec-07 08:00N 39°17' W 076°36'0 0.0
2017-Dec-07 07:30N 39°17' W 076°36'0 0.0
2017-Dec-07 07:00N 39°17' W 076°36'0 0.0
2017-Dec-07 06:31N 39°17' W 076°36'0 0.0
2017-Dec-07 06:01N 39°17' W 076°36'0 0.7
2017-Dec-07 05:31N 39°17' W 076°36'0 0.7
2017-Dec-07 05:01N 39°17' W 076°36'0 0.0
2017-Dec-07 04:30N 39°17' W 076°36'0 0.0
2017-Dec-07 04:01N 39°17' W 076°36'0 0.0
2017-Dec-07 03:31N 39°17' W 076°36'0 0.0
2017-Dec-07 03:01N 39°17' W 076°36'0 0.0
2017-Dec-07 02:31N 39°17' W 076°36'0 0.0
2017-Dec-07 02:00N 39°17' W 076°36'0 0.0
2017-Dec-07 01:30N 39°17' W 076°36'0 0.0
2017-Dec-07 01:00N 39°17' W 076°36'0 0.0
2017-Dec-07 00:31N 39°17' W 076°36'0 0.0
2017-Dec-07 00:00N 39°17' W 076°36'0 0.0
2017-Dec-06 23:30N 39°17' W 076°36'0 0.0
2017-Dec-06 23:01N 39°17' W 076°36'0 0.0
2017-Dec-06 22:31N 39°17' W 076°36'0 0.0
2017-Dec-06 22:00N 39°17' W 076°36'0 0.0
2017-Dec-06 21:30N 39°17' W 076°36'0 0.0
2017-Dec-06 21:00N 39°17' W 076°36'  
2017-Dec-02 13:17N 36°39' W 076°04'9 0.7
2017-Dec-02 00:26N 36°43' W 076°14'1 1.7
2017-Dec-02 00:00N 36°43' W 076°15'1 2.7
2017-Dec-01 23:31N 36°44' W 076°16'2 3.9
2017-Dec-01 23:01N 36°45' W 076°18'2 3.3
2017-Dec-01 22:31N 36°47' W 076°18'3 5.7
2017-Dec-01 22:01N 36°50' W 076°18'3 5.9
2017-Dec-01 21:30N 36°52' W 076°20'3 6.3
2017-Dec-01 21:01N 36°55' W 076°20'115 5.8
2017-Dec-01 01:05N 38°50' W 076°26'0 6.3
2017-Dec-01 01:01N 38°50' W 076°26'5 6.5
2017-Dec-01 00:15N 38°55' W 076°24'2 6.6
2017-Nov-30 23:57N 38°57' W 076°24'3 6.3
2017-Nov-30 23:28N 39°00' W 076°23'4 5.8
2017-Nov-30 22:46N 39°04' W 076°24'2 5.7
2017-Nov-30 22:23N 39°06' W 076°24'2 5.6
2017-Nov-30 22:00N 39°08' W 076°24'3 5.4
2017-Nov-30 21:29N 39°11' W 076°26'2 5.1
2017-Nov-30 21:00N 39°12' W 076°29'1 1.4
2017-Nov-30 20:30N 39°13' W 076°29'0 0.0
2017-Nov-30 20:00N 39°13' W 076°29'0 0.0
2017-Nov-30 19:30N 39°13' W 076°29'0 0.0
2017-Nov-30 19:01N 39°13' W 076°29'0 0.0
2017-Nov-30 18:30N 39°13' W 076°29'0 0.0
2017-Nov-30 18:01N 39°13' W 076°29'0 0.0
2017-Nov-30 17:31N 39°13' W 076°29'1 2.9
2017-Nov-30 17:01N 39°12' W 076°31'3 6.1
2017-Nov-30 16:30N 39°13' W 076°35'1 1.4
2017-Nov-30 16:00N 39°12' W 076°35'0 0.0
2017-Nov-30 15:30N 39°12' W 076°35'1 1.7
2017-Nov-30 15:00N 39°13' W 076°35'1 1.2
2017-Nov-30 14:31N 39°14' W 076°34'0 0.0
2017-Nov-30 14:00N 39°14' W 076°34'0 0.0
2017-Nov-30 13:31N 39°14' W 076°34'0 0.0
2017-Nov-30 13:01N 39°14' W 076°34'2 3.1
2017-Nov-30 12:30N 39°13' W 076°32'2 4.9
2017-Nov-30 12:01N 39°13' W 076°29'0 0.4
2017-Nov-30 11:30N 39°13' W 076°29'0 0.1
2017-Nov-30 11:01N 39°13' W 076°29'0 0.0
2017-Nov-30 10:31N 39°13' W 076°29'0 0.0
2017-Nov-30 10:00N 39°13' W 076°29'0 0.0
2017-Nov-30 09:30N 39°13' W 076°29'0 0.0
2017-Nov-30 09:00N 39°13' W 076°29'0 0.0
2017-Nov-30 08:30N 39°13' W 076°29'0 0.0
2017-Nov-30 08:00N 39°13' W 076°29'0 0.0
2017-Nov-30 07:31N 39°13' W 076°29'0 0.0
2017-Nov-30 07:01N 39°13' W 076°29'0 0.0
2017-Nov-30 06:30N 39°13' W 076°29'0 0.0
2017-Nov-30 06:01N 39°13' W 076°29'0 0.0
2017-Nov-30 05:31N 39°13' W 076°29'0 0.0
2017-Nov-30 05:00N 39°13' W 076°29'0 0.0
2017-Nov-30 04:31N 39°13' W 076°29'0 0.0
2017-Nov-30 04:00N 39°13' W 076°29'0 0.0
2017-Nov-30 03:30N 39°13' W 076°29'0 0.0
2017-Nov-30 03:01N 39°13' W 076°29'0 0.0
2017-Nov-30 02:30N 39°13' W 076°29'0 0.0
2017-Nov-30 02:00N 39°13' W 076°29'0 0.0
2017-Nov-30 01:30N 39°13' W 076°29'0 0.0
2017-Nov-30 01:01N 39°13' W 076°29'0 0.0
2017-Nov-30 00:31N 39°13' W 076°29'0 0.0
2017-Nov-30 00:00N 39°13' W 076°29'0 0.3
2017-Nov-29 23:30N 39°13' W 076°29'2 5.0
2017-Nov-29 23:00N 39°13' W 076°32'3 5.0
2017-Nov-29 22:30N 39°12' W 076°35'0 0.0
2017-Nov-29 22:00N 39°12' W 076°35'0 0.0
2017-Nov-29 21:31N 39°12' W 076°35'0 0.0
2017-Nov-29 21:01N 39°12' W 076°35'0 0.0
2017-Nov-29 20:30N 39°12' W 076°35'0 0.0
2017-Nov-29 20:00N 39°12' W 076°35'0 0.0
2017-Nov-29 19:31N 39°12' W 076°35'0 0.0
2017-Nov-29 19:00N 39°12' W 076°35'0 0.0
2017-Nov-29 18:31N 39°12' W 076°35'0 0.0
2017-Nov-29 18:00N 39°12' W 076°35'0 0.0
2017-Nov-29 17:30N 39°12' W 076°35'0 0.0
2017-Nov-29 17:00N 39°12' W 076°35'0 0.0
2017-Nov-29 16:30N 39°12' W 076°35'0 0.0
2017-Nov-29 16:00N 39°12' W 076°35'2 3.7
2017-Nov-29 15:30N 39°13' W 076°33'3 6.7
2017-Nov-29 15:00N 39°12' W 076°29'0 0.4
2017-Nov-29 14:30N 39°12' W 076°29'3 6.6
2017-Nov-29 14:00N 39°10' W 076°26'3 6.7
2017-Nov-29 13:30N 39°07' W 076°24'3 6.7
2017-Nov-29 13:00N 39°04' W 076°24'3 6.4
2017-Nov-29 12:30N 39°01' W 076°23'3 6.8
2017-Nov-29 12:00N 38°57' W 076°24'4 6.9
2017-Nov-29 11:26N 38°54' W 076°25'3 6.6
2017-Nov-29 11:00N 38°51' W 076°26'3 6.7
2017-Nov-29 10:29N 38°48' W 076°27'5 6.7
2017-Nov-29 09:42N 38°42' W 076°28'1 6.9
2017-Nov-29 09:30N 38°41' W 076°28'5 6.8
2017-Nov-29 08:42N 38°36' W 076°27'1 6.8
2017-Nov-29 08:30N 38°34' W 076°27'3 6.6
2017-Nov-29 08:00N 38°31' W 076°27'  
Track history (hours):
 
Tides and Currents Weather Stations Pressure Air Temp Water Temp Dewpoint Dewpoint Depression Visibility Wind Speed Wind Dir Waves Ship Positions

Island Pilot

Owner: Island Pilot, Yonges Island, SC. More information available from US FCC via Universal Licensing System and Coast Guard Vessel Documentation Center.

Last reported at 2017-Dec-09 04:37 UTC. Time now 2017-Dec-11 11:30 UTC.
Position N 36°43' W 076°13'.

Length 20 m; draft 3 m.

Type: Towing. MMSI: 367473520.

Date/timePositionNaut miles runAvg speedWind from/ knotsBaromVisibWave heightAir tempDewpointWater temp
2017-Dec-09 04:37N 36°43' W 076°13'1 4.2
2017-Dec-09 04:29N 36°43' W 076°14'1 1.5
2017-Dec-09 03:59N 36°43' W 076°15'1 2.3
2017-Dec-09 03:31N 36°44' W 076°16'2 3.7
2017-Dec-09 03:00N 36°45' W 076°18'1 2.9
2017-Dec-09 02:31N 36°47' W 076°18'1 1.5
2017-Dec-09 02:00N 36°47' W 076°18'3 5.5
2017-Dec-09 01:31N 36°50' W 076°18'3 5.6
2017-Dec-09 01:00N 36°52' W 076°20'3 5.9
2017-Dec-09 00:30N 36°55' W 076°20'115 5.6
2017-Dec-08 03:58N 38°50' W 076°27'3 5.2
2017-Dec-08 03:29N 38°52' W 076°26'3 5.0
2017-Dec-08 02:49N 38°56' W 076°25'1 4.7
2017-Dec-08 02:30N 38°57' W 076°24'3 4.7
2017-Dec-08 01:57N 38°59' W 076°23'2 4.3
2017-Dec-08 01:30N 39°01' W 076°23'2 4.6
2017-Dec-08 01:00N 39°04' W 076°23'2 4.8
2017-Dec-08 00:30N 39°06' W 076°24'2 5.0
2017-Dec-08 00:00N 39°08' W 076°24'3 5.3
2017-Dec-07 23:30N 39°11' W 076°26'3 5.2
2017-Dec-07 23:00N 39°12' W 076°29'1 1.3
2017-Dec-07 22:31N 39°13' W 076°29'0 0.0
2017-Dec-07 22:00N 39°13' W 076°29'0 0.0
2017-Dec-07 21:30N 39°13' W 076°29'0 0.2
2017-Dec-07 21:00N 39°13' W 076°29'0 0.0
2017-Dec-07 20:30N 39°13' W 076°29'0 0.0
2017-Dec-07 19:58N 39°13' W 076°29'0 0.0
2017-Dec-07 19:30N 39°13' W 076°29'0 0.0
2017-Dec-07 18:55N 39°13' W 076°29'0 0.0
2017-Dec-07 18:30N 39°13' W 076°29'2 4.3
2017-Dec-07 18:01N 39°13' W 076°32'3 5.3
2017-Dec-07 17:31N 39°12' W 076°35'0 0.0
2017-Dec-07 17:00N 39°12' W 076°35'0 0.0
2017-Dec-07 16:31N 39°12' W 076°35'0 0.0
2017-Dec-07 16:00N 39°12' W 076°35'0 0.0
2017-Dec-07 15:30N 39°12' W 076°35'0 0.0
2017-Dec-07 15:00N 39°12' W 076°35'1 1.0
2017-Dec-07 14:30N 39°13' W 076°35'1 1.9
2017-Dec-07 14:01N 39°14' W 076°34'0 0.0
2017-Dec-07 13:30N 39°14' W 076°34'0 0.0
2017-Dec-07 13:01N 39°14' W 076°34'2 3.7
2017-Dec-07 12:31N 39°13' W 076°32'2 4.4
2017-Dec-07 12:00N 39°13' W 076°29'0 0.1
2017-Dec-07 11:30N 39°13' W 076°29'0 0.0
2017-Dec-07 11:00N 39°13' W 076°29'0 0.0
2017-Dec-07 10:31N 39°13' W 076°29'1 1.8
2017-Dec-07 10:01N 39°12' W 076°29'4 7.3
2017-Dec-07 09:30N 39°14' W 076°33'3 6.5
2017-Dec-07 09:01N 39°17' W 076°36'0 0.2
2017-Dec-07 08:30N 39°17' W 076°36'0 0.0
2017-Dec-07 08:00N 39°17' W 076°36'0 0.0
2017-Dec-07 07:30N 39°17' W 076°36'0 0.0
2017-Dec-07 07:00N 39°17' W 076°36'0 0.0
2017-Dec-07 06:31N 39°17' W 076°36'0 0.0
2017-Dec-07 06:01N 39°17' W 076°36'0 0.7
2017-Dec-07 05:31N 39°17' W 076°36'0 0.7
2017-Dec-07 05:01N 39°17' W 076°36'0 0.0
2017-Dec-07 04:30N 39°17' W 076°36'0 0.0
2017-Dec-07 04:01N 39°17' W 076°36'0 0.0
2017-Dec-07 03:31N 39°17' W 076°36'0 0.0
2017-Dec-07 03:01N 39°17' W 076°36'0 0.0
2017-Dec-07 02:31N 39°17' W 076°36'0 0.0
2017-Dec-07 02:00N 39°17' W 076°36'0 0.0
2017-Dec-07 01:30N 39°17' W 076°36'0 0.0
2017-Dec-07 01:00N 39°17' W 076°36'0 0.0
2017-Dec-07 00:31N 39°17' W 076°36'0 0.0
2017-Dec-07 00:00N 39°17' W 076°36'0 0.0
2017-Dec-06 23:30N 39°17' W 076°36'0 0.0
2017-Dec-06 23:01N 39°17' W 076°36'0 0.0
2017-Dec-06 22:31N 39°17' W 076°36'0 0.0
2017-Dec-06 22:00N 39°17' W 076°36'0 0.0
2017-Dec-06 21:30N 39°17' W 076°36'0 0.0
2017-Dec-06 21:00N 39°17' W 076°36'  
2017-Dec-02 13:17N 36°39' W 076°04'9 0.7
2017-Dec-02 00:26N 36°43' W 076°14'1 1.7
2017-Dec-02 00:00N 36°43' W 076°15'1 2.7
2017-Dec-01 23:31N 36°44' W 076°16'2 3.9
2017-Dec-01 23:01N 36°45' W 076°18'2 3.3
2017-Dec-01 22:31N 36°47' W 076°18'3 5.7
2017-Dec-01 22:01N 36°50' W 076°18'3 5.9
2017-Dec-01 21:30N 36°52' W 076°20'3 6.3
2017-Dec-01 21:01N 36°55' W 076°20'115 5.8
2017-Dec-01 01:05N 38°50' W 076°26'0 6.3
2017-Dec-01 01:01N 38°50' W 076°26'5 6.5
2017-Dec-01 00:15N 38°55' W 076°24'2 6.6
2017-Nov-30 23:57N 38°57' W 076°24'3 6.3
2017-Nov-30 23:28N 39°00' W 076°23'4 5.8
2017-Nov-30 22:46N 39°04' W 076°24'2 5.7
2017-Nov-30 22:23N 39°06' W 076°24'2 5.6
2017-Nov-30 22:00N 39°08' W 076°24'3 5.4
2017-Nov-30 21:29N 39°11' W 076°26'2 5.1
2017-Nov-30 21:00N 39°12' W 076°29'1 1.4
2017-Nov-30 20:30N 39°13' W 076°29'0 0.0
2017-Nov-30 20:00N 39°13' W 076°29'0 0.0
2017-Nov-30 19:30N 39°13' W 076°29'0 0.0
2017-Nov-30 19:01N 39°13' W 076°29'0 0.0
2017-Nov-30 18:30N 39°13' W 076°29'0 0.0
2017-Nov-30 18:01N 39°13' W 076°29'0 0.0
2017-Nov-30 17:31N 39°13' W 076°29'1 2.9
2017-Nov-30 17:01N 39°12' W 076°31'3 6.1
2017-Nov-30 16:30N 39°13' W 076°35'1 1.4
2017-Nov-30 16:00N 39°12' W 076°35'0 0.0
2017-Nov-30 15:30N 39°12' W 076°35'1 1.7
2017-Nov-30 15:00N 39°13' W 076°35'1 1.2
2017-Nov-30 14:31N 39°14' W 076°34'0 0.0
2017-Nov-30 14:00N 39°14' W 076°34'0 0.0
2017-Nov-30 13:31N 39°14' W 076°34'0 0.0
2017-Nov-30 13:01N 39°14' W 076°34'2 3.1
2017-Nov-30 12:30N 39°13' W 076°32'2 4.9
2017-Nov-30 12:01N 39°13' W 076°29'0 0.4
2017-Nov-30 11:30N 39°13' W 076°29'0 0.1
2017-Nov-30 11:01N 39°13' W 076°29'0 0.0
2017-Nov-30 10:31N 39°13' W 076°29'0 0.0
2017-Nov-30 10:00N 39°13' W 076°29'0 0.0
2017-Nov-30 09:30N 39°13' W 076°29'0 0.0
2017-Nov-30 09:00N 39°13' W 076°29'0 0.0
2017-Nov-30 08:30N 39°13' W 076°29'0 0.0
2017-Nov-30 08:00N 39°13' W 076°29'0 0.0
2017-Nov-30 07:31N 39°13' W 076°29'0 0.0
2017-Nov-30 07:01N 39°13' W 076°29'0 0.0
2017-Nov-30 06:30N 39°13' W 076°29'0 0.0
2017-Nov-30 06:01N 39°13' W 076°29'0 0.0
2017-Nov-30 05:31N 39°13' W 076°29'0 0.0
2017-Nov-30 05:00N 39°13' W 076°29'0 0.0
2017-Nov-30 04:31N 39°13' W 076°29'0 0.0
2017-Nov-30 04:00N 39°13' W 076°29'0 0.0
2017-Nov-30 03:30N 39°13' W 076°29'0 0.0
2017-Nov-30 03:01N 39°13' W 076°29'0 0.0
2017-Nov-30 02:30N 39°13' W 076°29'0 0.0
2017-Nov-30 02:00N 39°13' W 076°29'0 0.0
2017-Nov-30 01:30N 39°13' W 076°29'0 0.0
2017-Nov-30 01:01N 39°13' W 076°29'0 0.0
2017-Nov-30 00:31N 39°13' W 076°29'0 0.0
2017-Nov-30 00:00N 39°13' W 076°29'0 0.3
2017-Nov-29 23:30N 39°13' W 076°29'2 5.0
2017-Nov-29 23:00N 39°13' W 076°32'3 5.0
2017-Nov-29 22:30N 39°12' W 076°35'0 0.0
2017-Nov-29 22:00N 39°12' W 076°35'0 0.0
2017-Nov-29 21:31N 39°12' W 076°35'0 0.0
2017-Nov-29 21:01N 39°12' W 076°35'0 0.0
2017-Nov-29 20:30N 39°12' W 076°35'0 0.0
2017-Nov-29 20:00N 39°12' W 076°35'0 0.0
2017-Nov-29 19:31N 39°12' W 076°35'0 0.0
2017-Nov-29 19:00N 39°12' W 076°35'0 0.0
2017-Nov-29 18:31N 39°12' W 076°35'0 0.0
2017-Nov-29 18:00N 39°12' W 076°35'0 0.0
2017-Nov-29 17:30N 39°12' W 076°35'0 0.0
2017-Nov-29 17:00N 39°12' W 076°35'0 0.0
2017-Nov-29 16:30N 39°12' W 076°35'0 0.0
2017-Nov-29 16:00N 39°12' W 076°35'2 3.7
2017-Nov-29 15:30N 39°13' W 076°33'3 6.7
2017-Nov-29 15:00N 39°12' W 076°29'0 0.4
2017-Nov-29 14:30N 39°12' W 076°29'3 6.6
2017-Nov-29 14:00N 39°10' W 076°26'3 6.7
2017-Nov-29 13:30N 39°07' W 076°24'3 6.7
2017-Nov-29 13:00N 39°04' W 076°24'3 6.4
2017-Nov-29 12:30N 39°01' W 076°23'3 6.8
2017-Nov-29 12:00N 38°57' W 076°24'4 6.9
2017-Nov-29 11:26N 38°54' W 076°25'3 6.6
2017-Nov-29 11:00N 38°51' W 076°26'3 6.7
2017-Nov-29 10:29N 38°48' W 076°27'5 6.7
2017-Nov-29 09:42N 38°42' W 076°28'1 6.9
2017-Nov-29 09:30N 38°41' W 076°28'5 6.8
2017-Nov-29 08:42N 38°36' W 076°27'1 6.8
2017-Nov-29 08:30N 38°34' W 076°27'3 6.6
2017-Nov-29 08:00N 38°31' W 076°27'  

Dump ship's entire track history